Orto / Ocaso: 04:57 / 19:37 UTC (Datos para LEAX 17-06-2019)

[fuente: ADDS]

METAR:


LEMG 172100Z 00000KT CAVOK 19/17 Q1016 NOSIG =
TAF LEMG 171700Z 1718/1818 13010KT 9999 FEW010 TX26/1812Z TN14/1805Z BECMG 1720/1723 VRB03KT PROB30 TEMPO 1723/1807 29006KT 4000 BR BKN010 BECMG 1806/1809 13010KT LEGR 172100Z 16003KT 110V190 CAVOK 20/M00 Q1017 =
TAF LEGR 172000Z 1721/1821 VRB02KT CAVOK TX33/1815Z TN11/1805Z BECMG 1810/1813 24013KT LEZL 172100Z 22008KT CAVOK 24/10 Q1014 NOSIG =
TAF LEZL 172000Z 1721/1821 21006KT CAVOK TX30/1816Z TN14/1805Z LEAM 172100Z AUTO VRB01KT 9999 NCD 21/16 Q1016 =
TAF LEAM 172000Z 1721/1821 VRB03KT 9999 FEW015 TX24/1812Z TN17/1805Z PROB30 TEMPO 1800/1806 3000 BR BKN008 BECMG 1809/1812 20010KT LEBA 172030Z AUTO 25008KT 210V280 9999 NCD 26/09 Q1013 =
TAF LEBA 171700Z 1718/1803 26009KT CAVOK LEJR 172100Z 26005KT 230V320 CAVOK 19/11 Q1015 =
TAF LEJR 171700Z 1718/1818 25010KT 9999 FEW035 TX27/1814Z TN11/1805Z BECMG 1718/1721 VRB02KT GEML 172100Z AUTO VRB02KT 9999 FEW011 21/17 Q1016 =
TAF GEML 172000Z 1721/1821 10003KT 9999 FEW015 TX26/1815Z TN17/1805Z PROB40 TEMPO 1723/1809 BKN008 BECMG 1809/1812 29010KT BECMG 1818/1821 VRB02KT LXGB 171950Z 09004KT CAVOK 19/17 Q1015 NOSIG RMK BLU BLU =
TAF LXGB 171628Z 1718/1722 09008KT CAVOK PROB30 1720/1722 7000 HZ

TAFOR:


TAF LEMG 171700Z 1718/1818 13010KT 9999 FEW010 TX26/1812Z TN14/1805Z BECMG 1720/1723 VRB03KT PROB30 TEMPO 1723/1807 29006KT 4000 BR BKN010 BECMG 1806/1809 13010KT =
TAF LEGR 172000Z 1721/1821 VRB02KT CAVOK TX33/1815Z TN11/1805Z BECMG 1810/1813 24013KT =
TAF LEZL 172000Z 1721/1821 21006KT CAVOK TX30/1816Z TN14/1805Z =
TAF LEAM 172000Z 1721/1821 VRB03KT 9999 FEW015 TX24/1812Z TN17/1805Z PROB30 TEMPO 1800/1806 3000 BR BKN008 BECMG 1809/1812 20010KT =
TAF LEBA 171700Z 1718/1803 26009KT CAVOK =
TAF LEJR 171700Z 1718/1818 25010KT 9999 FEW035 TX27/1814Z TN11/1805Z BECMG 1718/1721 VRB02KT =
TAF GEML 172000Z 1721/1821 10003KT 9999 FEW015 TX26/1815Z TN17/1805Z PROB40 TEMPO 1723/1809 BKN008 BECMG 1809/1812 29010KT BECMG 1818/1821 VRB02KT =
TAF LXGB 171628Z 1718/1722 09008KT CAVOK PROB30 1720/1722 7000 HZ =

Recuerde que, aunque regularmente actualizada, la información meteorológica aquí presentada no debe ser utilizada para la planificación de vuelos. Si lo desea, puede consultar la información meteorológica adecuada, tanto de aeródromos como en ruta, por las vías oficialmente establecidas en la legislación -> AQUí